Time;durP1;ratioP1;P1;durP2;ratioP2;P2;SDS_P1;SDS_P2;PMS_P1;PMS_P2;Temp;Humidity;BMP_temperature;BMP_pressure;BME280_temperature;BME280_humidity;BME280_pressure;Samples;Min_cycle;Max_cycle;Signal;HPM_P1;HPM_P2
2022/05/02 00:00:21;;;;;;;40.35;24.17;;;14.90;99.90;;;;;;4896014;29;20036;-86
2022/05/02 00:02:49;;;;;;;33.55;21.60;;;14.90;99.90;;;;;;4880416;29;20127;-85
2022/05/02 00:05:16;;;;;;;39.10;22.70;;;14.80;99.90;;;;;;4849534;29;20054;-85
2022/05/02 00:07:43;;;;;;;33.78;20.58;;;14.80;99.90;;;;;;4864996;29;20037;-85
2022/05/02 00:10:11;;;;;;;33.95;21.58;;;14.80;99.90;;;;;;4863804;29;20124;-85
2022/05/02 00:12:39;;;;;;;34.80;21.02;;;14.70;99.90;;;;;;4864665;29;20037;-85
2022/05/02 00:15:07;;;;;;;34.00;20.15;;;14.70;99.90;;;;;;4880012;29;20029;-86
2022/05/02 00:20:20;;;;;;;31.58;19.63;;;14.70;99.90;;;;;;4880199;29;20466;-85
2022/05/02 00:22:47;;;;;;;33.50;19.55;;;14.60;99.90;;;;;;4864522;29;20066;-86
2022/05/02 00:25:15;;;;;;;31.80;19.88;;;14.50;99.90;;;;;;4864698;29;20483;-85
2022/05/02 00:27:42;;;;;;;31.30;18.30;;;14.50;99.90;;;;;;4864482;29;20033;-85
2022/05/02 00:30:12;;;;;;;28.05;17.95;;;14.50;99.90;;;;;;4864531;29;20033;-85
2022/05/02 00:32:39;;;;;;;28.77;16.77;;;14.50;99.90;;;;;;4864423;29;20053;-85
2022/05/02 00:35:08;;;;;;;27.38;17.58;;;14.50;99.90;;;;;;4864412;29;20033;-85
2022/05/02 00:37:37;;;;;;;28.00;16.98;;;14.40;99.90;;;;;;4864407;29;20025;-85
2022/05/02 00:40:06;;;;;;;32.20;18.90;;;14.40;99.90;;;;;;4880016;29;20089;-85
2022/05/02 00:42:33;;;;;;;27.70;17.67;;;14.40;99.90;;;;;;4864061;29;20503;-86
2022/05/02 00:45:00;;;;;;;30.00;17.15;;;14.30;99.90;;;;;;4864314;29;20483;-85
2022/05/02 00:47:27;;;;;;;28.63;17.90;;;14.20;99.90;;;;;;4863579;29;20057;-85
2022/05/02 00:49:54;;;;;;;31.55;17.35;;;14.20;99.90;;;;;;4864157;29;20111;-85
2022/05/02 00:52:21;;;;;;;26.60;17.08;;;14.10;99.90;;;;;;4864059;29;20040;-85
2022/05/02 00:54:49;;;;;;;28.52;17.52;;;14.10;99.90;;;;;;4864164;29;20029;-86
2022/05/02 00:57:17;;;;;;;27.17;17.27;;;14.10;99.90;;;;;;4864149;29;20039;-84
2022/05/02 00:59:44;;;;;;;29.70;18.23;;;14.00;99.90;;;;;;4864025;29;20120;-85
2022/05/02 01:02:14;;;;;;;28.45;18.40;;;14.00;99.90;;;;;;4864052;29;20053;-85
2022/05/02 01:04:42;;;;;;;27.17;17.95;;;14.00;99.90;;;;;;4863920;29;20510;-85
2022/05/02 01:07:18;;;;;;;29.15;17.63;;;14.10;99.90;;;;;;4864022;29;20062;-85
2022/05/02 01:09:51;;;;;;;28.25;17.77;;;14.10;99.90;;;;;;4863771;29;20056;-85
2022/05/02 01:12:24;;;;;;;27.40;16.92;;;14.10;99.90;;;;;;4863925;29;20502;-85
2022/05/02 01:14:54;;;;;;;27.60;17.52;;;14.00;99.90;;;;;;4863814;29;20521;-85
2022/05/02 01:17:22;;;;;;;28.27;17.17;;;14.00;99.90;;;;;;4863947;29;20039;-85
2022/05/02 01:19:50;;;;;;;25.00;16.80;;;13.90;99.90;;;;;;4863844;29;20124;-85
2022/05/02 01:22:18;;;;;;;24.60;16.52;;;14.00;99.90;;;;;;4863562;29;20048;-85
2022/05/02 01:24:47;;;;;;;25.17;16.75;;;14.00;99.90;;;;;;4863712;29;20126;-85
2022/05/02 01:27:15;;;;;;;24.42;16.35;;;14.00;99.90;;;;;;4877973;29;20037;-85
2022/05/02 01:29:45;;;;;;;25.77;15.90;;;13.90;99.90;;;;;;4864263;29;20029;-85
2022/05/02 01:32:15;;;;;;;26.65;15.30;;;13.90;99.90;;;;;;4863435;29;20040;-85
2022/05/02 01:34:43;;;;;;;24.50;14.88;;;13.80;99.90;;;;;;4863569;29;20033;-85
2022/05/02 01:37:14;;;;;;;27.77;16.10;;;13.90;99.90;;;;;;4863566;29;20440;-85
2022/05/02 01:39:43;;;;;;;24.65;16.42;;;13.90;99.90;;;;;;4863284;29;20029;-85
2022/05/02 01:42:12;;;;;;;24.77;15.63;;;13.90;99.90;;;;;;4863496;29;20059;-85
2022/05/02 01:44:40;;;;;;;24.63;15.80;;;13.90;99.90;;;;;;4863422;29;20040;-85
2022/05/02 01:47:10;;;;;;;22.80;15.63;;;14.00;99.90;;;;;;4863474;29;20029;-85
2022/05/02 01:49:37;;;;;;;24.60;15.50;;;14.00;99.90;;;;;;4863509;29;20439;-85
2022/05/02 01:52:03;;;;;;;28.33;16.02;;;14.10;99.90;;;;;;4863491;29;20036;-85
2022/05/02 01:54:30;;;;;;;23.95;16.58;;;14.10;99.90;;;;;;4863491;29;20124;-85
2022/05/02 01:56:57;;;;;;;23.63;15.60;;;14.00;99.90;;;;;;4863242;29;20037;-85
2022/05/02 01:59:24;;;;;;;22.95;15.32;;;14.00;99.90;;;;;;4865046;29;20052;-85
2022/05/02 02:01:51;;;;;;;26.27;15.82;;;14.10;99.90;;;;;;4867185;29;20041;-85
2022/05/02 02:07:03;;;;;;;21.88;14.95;;;13.90;99.90;;;;;;4867013;29;20121;-85
2022/05/02 02:09:30;;;;;;;20.40;15.23;;;13.90;99.90;;;;;;4866803;29;20073;-85
2022/05/02 02:11:57;;;;;;;23.13;15.20;;;13.90;99.90;;;;;;4867001;29;20037;-84
2022/05/02 02:14:25;;;;;;;22.33;16.17;;;13.80;99.90;;;;;;4882551;29;20081;-85
2022/05/02 02:16:51;;;;;;;23.35;15.23;;;13.60;99.90;;;;;;4866997;29;20040;-85
2022/05/02 02:19:18;;;;;;;22.88;15.60;;;13.50;99.90;;;;;;4866971;29;20092;-85
2022/05/02 02:21:45;;;;;;;26.73;17.80;;;13.40;99.90;;;;;;4866756;29;20064;-86
2022/05/02 02:24:12;;;;;;;22.88;15.35;;;13.40;99.90;;;;;;4866657;29;20041;-85
2022/05/02 02:26:43;;;;;;;22.98;14.82;;;13.50;99.90;;;;;;4866725;29;20041;-85
2022/05/02 02:29:12;;;;;;;25.85;15.77;;;13.50;99.90;;;;;;4866749;29;20037;-85
2022/05/02 02:31:39;;;;;;;24.98;15.70;;;13.30;99.90;;;;;;4866548;29;20029;-85
2022/05/02 02:34:06;;;;;;;27.45;16.85;;;13.20;99.90;;;;;;4866730;29;20407;-85
2022/05/02 02:36:32;;;;;;;24.95;16.10;;;13.30;99.90;;;;;;4866781;29;20025;-85
2022/05/02 02:38:59;;;;;;;25.90;16.33;;;13.30;99.90;;;;;;4866535;29;20033;-85
2022/05/02 02:41:26;;;;;;;26.20;16.55;;;13.40;99.90;;;;;;4866422;29;20051;-85
2022/05/02 02:43:53;;;;;;;26.67;16.60;;;13.40;99.90;;;;;;4866411;29;20104;-85
2022/05/02 02:46:21;;;;;;;26.13;16.00;;;13.50;99.90;;;;;;4866357;29;20040;-85
2022/05/02 02:48:48;;;;;;;26.63;16.05;;;13.60;99.90;;;;;;4866505;29;20487;-85
2022/05/02 02:51:15;;;;;;;30.67;16.17;;;13.50;99.90;;;;;;4881787;29;20029;-85
2022/05/02 02:53:41;;;;;;;29.70;16.42;;;13.50;99.90;;;;;;4866276;29;20044;-85
2022/05/02 02:56:08;;;;;;;25.63;16.52;;;13.50;99.90;;;;;;4866166;29;20036;-85
2022/05/02 02:58:34;;;;;;;23.55;15.32;;;13.40;99.90;;;;;;4866144;29;20037;-85
2022/05/02 03:01:02;;;;;;;25.13;15.75;;;13.50;99.90;;;;;;4866035;29;20048;-85
2022/05/02 03:03:29;;;;;;;21.23;15.15;;;13.40;99.90;;;;;;4871137;29;20551;-84
2022/05/02 03:06:03;;;;;;;27.85;16.15;;;13.40;99.90;;;;;;4868143;29;20036;-84
2022/05/02 03:08:36;;;;;;;28.25;17.50;;;13.20;99.90;;;;;;4865537;29;20053;-83
2022/05/02 03:11:04;;;;;;;30.55;18.88;;;13.10;99.90;;;;;;4880509;29;20033;-83
2022/05/02 03:13:30;;;;;;;28.33;17.65;;;13.20;99.90;;;;;;4865476;29;20033;-84
2022/05/02 03:15:57;;;;;;;26.05;16.77;;;13.20;99.90;;;;;;4865582;29;20052;-84
2022/05/02 03:18:27;;;;;;;30.70;16.20;;;13.20;99.90;;;;;;4865327;29;20037;-83
2022/05/02 03:20:55;;;;;;;28.55;16.88;;;13.20;99.90;;;;;;4865390;29;20033;-83
2022/05/02 03:23:23;;;;;;;23.70;15.32;;;13.10;99.90;;;;;;4850019;29;20494;-83
2022/05/02 03:25:50;;;;;;;22.90;15.68;;;13.10;99.90;;;;;;4865454;29;20045;-83
2022/05/02 03:28:17;;;;;;;25.42;15.02;;;13.10;99.90;;;;;;4865684;29;20029;-83
2022/05/02 03:30:44;;;;;;;26.08;15.30;;;13.10;99.90;;;;;;4865665;29;20033;-83
2022/05/02 03:33:13;;;;;;;29.48;15.32;;;13.20;99.90;;;;;;4882131;29;20386;-83
2022/05/02 03:35:40;;;;;;;23.23;14.82;;;13.20;99.90;;;;;;4882131;29;20036;-83
2022/05/02 03:38:06;;;;;;;28.70;14.98;;;13.30;99.90;;;;;;4865380;29;20063;-86
2022/05/02 03:40:33;;;;;;;24.20;16.83;;;13.30;99.90;;;;;;4865560;29;20033;-85
2022/05/02 03:43:00;;;;;;;25.98;15.30;;;13.20;99.90;;;;;;4865662;29;20029;-86
2022/05/02 03:45:27;;;;;;;21.95;14.10;;;13.20;99.90;;;;;;4865576;29;20076;-84
2022/05/02 03:47:54;;;;;;;24.95;14.63;;;13.10;99.90;;;;;;4849747;29;20063;-84
2022/05/02 03:50:20;;;;;;;29.42;18.05;;;13.20;99.90;;;;;;4865114;29;20029;-83
2022/05/02 03:52:47;;;;;;;26.60;16.70;;;13.20;99.90;;;;;;4864947;29;20057;-84
2022/05/02 03:55:13;;;;;;;31.83;19.83;;;13.30;99.90;;;;;;4864865;29;20029;-84
2022/05/02 03:57:43;;;;;;;32.42;19.75;;;13.30;99.90;;;;;;4881519;29;20040;-84
2022/05/02 04:00:10;;;;;;;26.13;17.77;;;13.40;99.90;;;;;;4880328;29;20037;-84
2022/05/02 04:02:43;;;;;;;27.20;17.45;;;13.30;99.90;;;;;;4880198;29;20037;-84
2022/05/02 04:05:10;;;;;;;25.50;16.65;;;13.20;99.90;;;;;;4880720;29;20036;-84
2022/05/02 04:07:39;;;;;;;32.08;17.20;;;13.20;99.90;;;;;;4880099;29;20059;-84
2022/05/02 04:10:06;;;;;;;23.88;16.08;;;13.20;99.90;;;;;;4880509;29;20060;-84
2022/05/02 04:12:40;;;;;;;23.05;15.18;;;13.30;99.90;;;;;;4864635;29;20037;-84
2022/05/02 04:15:09;;;;;;;;;;;13.30;99.90;;;;;;4865064;29;20037;-84
2022/05/02 04:17:37;;;;;;;29.52;16.38;;;13.30;99.90;;;;;;4864492;29;19960;-86
2022/05/02 04:20:05;;;;;;;24.52;14.85;;;13.40;99.90;;;;;;4864840;29;20092;-85
2022/05/02 04:22:32;;;;;;;25.92;15.30;;;13.40;99.90;;;;;;4863524;29;20048;-85
2022/05/02 04:24:59;;;;;;;25.75;14.88;;;13.60;99.90;;;;;;4864905;29;20029;-85
2022/05/02 04:27:26;;;;;;;22.48;15.27;;;13.70;99.90;;;;;;4849164;29;20533;-85
2022/05/02 04:29:54;;;;;;;22.25;14.60;;;13.70;99.90;;;;;;4864513;29;20033;-86
2022/05/02 04:32:27;;;;;;;22.95;14.77;;;13.90;99.90;;;;;;4864400;29;20487;-86
2022/05/02 04:34:56;;;;;;;23.63;14.98;;;14.00;99.90;;;;;;4883333;29;20036;-84
2022/05/02 04:37:24;;;;;;;23.80;14.68;;;14.20;99.90;;;;;;4883230;29;20447;-84
2022/05/02 04:40:00;;;;;;;24.50;14.38;;;14.40;99.90;;;;;;4868091;29;20076;-85
2022/05/02 04:42:27;;;;;;;23.15;14.30;;;14.50;99.90;;;;;;4869731;29;20074;-85
2022/05/02 04:44:53;;;;;;;29.50;16.05;;;14.60;99.90;;;;;;4883139;29;20025;-85
2022/05/02 04:47:19;;;;;;;19.38;13.90;;;14.60;99.90;;;;;;4882335;29;20033;-83
2022/05/02 04:49:46;;;;;;;20.58;12.52;;;14.70;99.90;;;;;;4865364;29;20025;-84
2022/05/02 04:52:12;;;;;;;22.23;13.38;;;14.80;99.90;;;;;;4865343;29;20033;-84
2022/05/02 04:54:39;;;;;;;20.20;14.48;;;14.90;99.90;;;;;;4867147;29;20040;-84
2022/05/02 04:57:09;;;;;;;23.27;13.93;;;15.00;99.90;;;;;;4866914;29;20034;-84
2022/05/02 04:59:35;;;;;;;19.92;13.25;;;15.10;99.90;;;;;;4867111;29;20032;-86
2022/05/02 05:02:04;;;;;;;21.98;15.48;;;15.30;99.90;;;;;;4866797;29;20051;-84
2022/05/02 05:04:31;;;;;;;23.75;15.35;;;15.40;99.90;;;;;;4866728;29;20048;-84
2022/05/02 05:07:01;;;;;;;25.48;16.50;;;15.60;99.90;;;;;;4866840;29;20032;-84
2022/05/02 05:09:28;;;;;;;25.67;16.02;;;15.80;99.90;;;;;;4866631;29;20053;-84
2022/05/02 05:12:19;;;;;;;26.90;17.27;;;15.90;99.90;;;;;;4866744;29;20439;-84
2022/05/02 05:17:48;;;;;;;27.17;15.68;;;15.50;99.90;;;;;;4876565;29;20398;-83
2022/05/02 05:20:52;;;;;;;25.70;14.90;;;15.40;99.90;;;;;;4873537;29;20025;-85
2022/05/02 05:23:35;;;;;;;30.30;18.60;;;15.30;99.90;;;;;;4869702;29;20128;-83
2022/05/02 05:26:11;;;;;;;29.00;17.63;;;15.40;99.90;;;;;;4857328;29;20040;-83
2022/05/02 05:29:02;;;;;;;27.20;18.52;;;15.50;99.90;;;;;;4856411;29;20483;-83
2022/05/02 05:31:43;;;;;;;30.48;18.85;;;15.70;99.90;;;;;;4872458;29;20101;-84
2022/05/02 05:34:25;;;;;;;25.77;16.13;;;15.70;99.90;;;;;;4862908;29;20398;-83
2022/05/02 05:37:03;;;;;;;24.90;16.52;;;15.50;99.90;;;;;;4863555;29;20044;-83
2022/05/02 05:39:54;;;;;;;29.25;17.98;;;16.00;99.90;;;;;;4863228;29;20029;-83
2022/05/02 05:42:38;;;;;;;26.15;16.52;;;16.70;99.90;;;;;;4847860;29;20045;-83
2022/05/02 05:45:10;;;;;;;26.77;17.63;;;17.60;99.90;;;;;;4863501;29;20036;-84
2022/05/02 05:47:55;;;;;;;31.50;18.98;;;17.30;99.90;;;;;;4847685;29;20037;-83
2022/05/02 05:50:30;;;;;;;33.85;22.08;;;17.10;99.90;;;;;;4848465;29;20060;-84
2022/05/02 05:53:32;;;;;;;28.50;19.05;;;16.80;99.90;;;;;;4862973;29;20043;-83
2022/05/02 05:56:11;;;;;;;26.33;17.13;;;16.40;99.90;;;;;;4847696;29;20480;-83
2022/05/02 05:59:06;;;;;;;30.45;18.08;;;16.10;99.90;;;;;;4848010;29;20046;-84
2022/05/02 06:01:44;;;;;;;25.20;16.42;;;16.00;99.90;;;;;;4847368;29;20045;-83
2022/05/02 06:04:13;;;;;;;28.73;15.60;;;15.90;99.90;;;;;;4863686;29;20123;-83
2022/05/02 06:06:41;;;;;;;25.88;17.02;;;15.80;99.90;;;;;;4847601;29;20402;-84
2022/05/02 06:09:10;;;;;;;24.15;17.70;;;15.70;99.90;;;;;;4855489;29;20055;-84
2022/05/02 06:11:40;;;;;;;34.10;20.20;;;15.80;99.90;;;;;;4862967;29;20033;-84
2022/05/02 06:14:08;;;;;;;32.65;18.95;;;15.90;99.90;;;;;;4878324;29;20033;-83
2022/05/02 06:19:28;;;;;;;27.40;17.65;;;16.20;99.90;;;;;;4878448;29;20060;-82
2022/05/02 06:21:57;;;;;;;27.33;16.05;;;16.60;99.90;;;;;;4879156;29;20128;-84
2022/05/02 06:24:31;;;;;;;26.58;15.25;;;16.80;99.90;;;;;;4897032;29;20025;-84
2022/05/02 06:27:00;;;;;;;29.35;14.95;;;16.70;99.90;;;;;;4878557;29;20510;-84
2022/05/02 06:29:28;;;;;;;30.60;15.10;;;16.70;99.90;;;;;;4862681;29;20044;-84
2022/05/02 06:31:58;;;;;;;29.63;15.18;;;17.30;99.90;;;;;;4862745;29;20487;-84
2022/05/02 06:34:30;;;;;;;22.88;13.77;;;17.50;99.90;;;;;;4878119;29;20033;-84
2022/05/02 06:37:21;;;;;;;26.63;14.50;;;17.50;99.90;;;;;;4862567;29;20037;-84
2022/05/02 06:40:03;;;;;;;25.10;13.98;;;17.10;99.90;;;;;;4862600;29;20060;-83
2022/05/02 06:42:54;;;;;;;15.25;11.30;;;16.80;99.90;;;;;;4862868;29;20075;-87
2022/05/02 07:12:54;;;;;;;15.25;9.43;;;18.10;99.90;;;;;;5605806;23;20051;-91
2022/05/02 07:15:30;;;;;;;13.80;8.80;;;18.80;99.90;;;;;;4924964;29;20067;-92
2022/05/02 07:18:05;;;;;;;15.60;9.80;;;18.60;99.90;;;;;;4908532;29;20542;-92
2022/05/02 07:20:42;;;;;;;17.60;10.13;;;18.50;99.90;;;;;;4922924;29;20139;-92
2022/05/02 07:23:25;;;;;;;23.73;9.73;;;18.00;99.90;;;;;;4907351;29;20075;-93
2022/05/02 07:26:02;;;;;;;12.32;9.18;;;17.80;99.90;;;;;;4907074;29;20028;-92
2022/05/02 07:28:46;;;;;;;14.52;9.70;;;19.10;99.90;;;;;;4922416;29;20032;-93
2022/05/02 07:31:19;;;;;;;12.38;8.65;;;19.10;99.90;;;;;;4922901;29;20485;-92
2022/05/02 07:33:50;;;;;;;15.20;8.60;;;19.40;99.90;;;;;;4922949;29;20039;-92
2022/05/02 07:36:20;;;;;;;11.98;8.32;;;19.50;99.90;;;;;;4922417;29;20039;-92
2022/05/02 07:39:07;;;;;;;15.95;9.43;;;18.70;99.90;;;;;;4922130;29;20116;-91
2022/05/02 07:41:38;;;;;;;15.95;10.10;;;18.50;99.90;;;;;;4922293;29;20050;-91
2022/05/02 07:44:08;;;;;;;14.38;8.95;;;18.60;99.90;;;;;;4906552;29;20514;-92
2022/05/02 07:46:47;;;;;;;16.33;9.18;;;18.80;99.90;;;;;;4922206;29;20038;-91
2022/05/02 07:49:21;;;;;;;21.15;8.82;;;19.10;99.90;;;;;;4922601;29;20032;-91
2022/05/02 07:51:51;;;;;;;17.77;8.77;;;19.00;99.90;;;;;;4908399;29;20031;-91
2022/05/02 07:54:25;;;;;;;14.23;8.40;;;19.50;99.90;;;;;;4928947;29;20023;-93
2022/05/02 07:57:02;;;;;;;15.02;8.00;;;19.30;99.90;;;;;;4948280;29;20032;-93
2022/05/02 07:59:44;;;;;;;20.13;9.77;;;19.70;99.90;;;;;;4921740;29;20028;-92
2022/05/02 08:02:14;;;;;;;13.43;8.95;;;19.20;99.90;;;;;;4921845;29;20126;-92
2022/05/02 08:04:44;;;;;;;14.63;8.23;;;18.90;99.90;;;;;;4922238;29;20031;-93
2022/05/02 08:07:30;;;;;;;16.42;8.52;;;19.50;99.90;;;;;;4907389;28;20026;-94
2022/05/02 08:10:18;;;;;;;13.48;7.53;;;19.60;99.90;;;;;;4911177;28;20016;-93
2022/05/02 08:13:09;;;;;;;12.48;8.02;;;19.90;99.90;;;;;;4922036;28;20163;-93
2022/05/02 08:15:50;;;;;;;9.07;7.55;;;20.10;99.90;;;;;;4903875;29;20033;-93
2022/05/02 08:18:43;;;;;;;13.63;8.45;;;19.50;99.90;;;;;;4903497;29;20402;-94
2022/05/02 08:21:24;;;;;;;19.85;8.90;;;20.00;99.90;;;;;;4888633;29;20044;-94
2022/05/02 08:27:25;;;;;;;10.48;7.82;;;19.50;99.90;;;;;;4911580;29;20052;-93
2022/05/02 08:30:07;;;;;;;13.85;8.20;;;19.40;99.90;;;;;;4900021;29;20043;-92
2022/05/02 08:32:41;;;;;;;15.60;7.72;;;19.70;99.90;;;;;;4908300;29;20070;-94
2022/05/02 08:35:09;;;;;;;;;;;21.30;99.90;;;;;;4891291;29;20032;-94
2022/05/02 08:38:12;;;;;;;16.17;8.05;;;21.40;99.90;;;;;;4890210;29;19946;-93
2022/05/02 08:41:16;;;;;;;15.82;8.40;;;20.20;99.90;;;;;;4890595;29;20036;-93
2022/05/02 08:44:11;;;;;;;17.42;9.10;;;20.20;99.90;;;;;;4905971;29;20507;-93
2022/05/02 08:46:59;;;;;;;20.42;9.10;;;19.30;99.90;;;;;;4905045;29;20028;-93
2022/05/02 08:49:49;;;;;;;18.75;9.23;;;18.70;99.90;;;;;;4904442;29;20087;-93
2022/05/02 08:52:36;;;;;;;15.02;8.85;;;18.90;99.90;;;;;;4904188;29;20028;-93
2022/05/02 08:55:46;;;;;;;13.77;9.32;;;18.10;99.90;;;;;;5008182;27;4258953;-94
2022/05/02 08:58:37;;;;;;;14.55;9.07;;;17.60;99.90;;;;;;5113176;28;20034;-94
2022/05/02 09:01:12;;;;;;;19.58;10.43;;;17.20;99.90;;;;;;5099780;28;20028;-92
2022/05/02 09:03:56;;;;;;;14.27;8.82;;;17.20;99.90;;;;;;5099957;28;20047;-93
2022/05/02 09:07:04;;;;;;;21.97;9.97;;;17.10;99.90;;;;;;5097449;28;20028;-93
2022/05/02 09:10:01;;;;;;;31.65;12.90;;;17.00;99.90;;;;;;5096946;28;20467;-93
2022/05/02 09:12:56;;;;;;;37.42;15.90;;;16.40;99.90;;;;;;5095203;28;20395;-93
2022/05/02 09:15:44;;;;;;;34.15;16.45;;;16.20;99.90;;;;;;5094122;28;20476;-93
2022/05/02 09:18:32;;;;;;;28.92;16.98;;;16.10;99.90;;;;;;5094182;28;20032;-93
2022/05/02 09:21:00;;;;;;;28.17;16.17;;;16.10;99.90;;;;;;5094378;28;20035;-93
2022/05/02 09:23:30;;;;;;;27.70;15.93;;;15.90;99.90;;;;;;5096068;28;20110;-94
2022/05/02 09:26:06;;;;;;;31.60;17.60;;;15.90;99.90;;;;;;5096028;28;20028;-93
2022/05/02 09:28:53;;;;;;;29.00;17.52;;;15.70;99.90;;;;;;5096035;28;20064;-94
2022/05/02 09:32:05;;;;;;;34.78;18.95;;;15.80;99.90;;;;;;5097140;28;20024;-94
2022/05/02 09:34:48;;;;;;;32.58;18.25;;;16.00;99.90;;;;;;5096139;28;20046;-93
2022/05/02 09:37:50;;;;;;;30.45;19.00;;;16.20;99.90;;;;;;5112132;28;20024;-93
2022/05/02 09:40:35;;;;;;;30.13;17.00;;;16.10;99.90;;;;;;5094049;28;20031;-93
2022/05/02 09:43:07;;;;;;;32.15;18.88;;;15.90;99.90;;;;;;5098031;28;20020;-93
2022/05/02 09:49:33;;;;;;;28.00;16.25;;;15.80;99.90;;;;;;5080622;28;20028;-93
2022/05/02 09:52:15;;;;;;;30.08;18.33;;;15.80;99.90;;;;;;5095163;28;20031;-91
2022/05/02 09:58:37;;;;;;;32.45;18.83;;;15.80;99.90;;;;;;5119344;28;20028;-93
2022/05/02 10:01:20;;;;;;;28.38;14.85;;;15.90;99.90;;;;;;5020382;28;20044;-94
2022/05/02 10:04:21;;;;;;;25.33;15.20;;;15.40;99.90;;;;;;5032102;28;20014;-94
2022/05/02 10:07:06;;;;;;;25.23;15.05;;;15.30;99.90;;;;;;5021807;28;20037;-94
2022/05/02 10:10:08;;;;;;;25.90;16.15;;;15.50;99.90;;;;;;5008132;28;20037;-94
2022/05/02 10:12:48;;;;;;;25.15;14.60;;;15.70;99.90;;;;;;4932939;29;20137;-94
2022/05/02 10:15:36;;;;;;;22.00;14.98;;;15.80;99.90;;;;;;4933779;29;20047;-94
2022/05/02 10:18:32;;;;;;;23.83;15.02;;;15.60;99.90;;;;;;4949319;29;20389;-94
2022/05/02 10:21:12;;;;;;;32.10;15.82;;;15.80;99.90;;;;;;4932763;29;20035;-93
2022/05/02 10:23:57;;;;;;;24.60;14.40;;;15.80;99.90;;;;;;4937778;29;20043;-93
2022/05/02 10:26:44;;;;;;;25.83;15.27;;;15.60;99.90;;;;;;4949578;29;20027;-94
2022/05/02 10:29:44;;;;;;;26.70;14.00;;;15.70;99.90;;;;;;4935657;29;20065;-94
2022/05/02 10:32:27;;;;;;;20.05;12.38;;;15.50;99.90;;;;;;4953796;29;20043;-94
2022/05/02 10:35:15;;;;;;;20.65;12.23;;;15.60;99.90;;;;;;4953574;29;20175;-94
2022/05/02 10:38:06;;;;;;;17.65;11.27;;;15.50;99.90;;;;;;5015742;28;20037;-94
2022/05/02 10:40:51;;;;;;;25.08;10.30;;;15.60;99.90;;;;;;5000165;28;20046;-93
2022/05/02 10:43:36;;;;;;;;;;;;;;;;;;;;;
2022/05/02 10:46:21;;;;;;;15.10;8.88;;;15.70;99.90;;;;;;5034230;28;20048;-94
2022/05/02 10:49:31;;;;;;;15.68;9.40;;;15.70;99.90;;;;;;5029645;28;20095;-94
2022/05/02 10:52:30;;;;;;;17.70;9.33;;;15.80;99.90;;;;;;5030362;28;20057;-94
2022/05/02 10:55:05;;;;;;;19.10;9.30;;;15.80;99.90;;;;;;5016989;28;20049;-94
2022/05/02 10:57:40;;;;;;;18.15;10.48;;;15.70;99.90;;;;;;5045145;28;20029;-94
2022/05/02 11:00:10;;;;;;;17.73;9.80;;;15.80;99.90;;;;;;5027612;28;20044;-94
2022/05/02 11:02:49;;;;;;;17.70;8.82;;;15.80;99.90;;;;;;5026922;28;20067;-93
2022/05/02 11:05:31;;;;;;;16.58;9.80;;;15.60;99.90;;;;;;5032791;28;20029;-93
2022/05/02 11:08:12;;;;;;;14.47;9.33;;;15.60;99.90;;;;;;5048166;28;20037;-94
2022/05/02 11:11:00;;;;;;;14.75;9.50;;;15.80;99.90;;;;;;5024427;28;20806;-93
2022/05/02 11:13:39;;;;;;;17.13;8.90;;;16.00;99.90;;;;;;5023572;28;20133;-94
2022/05/02 11:16:26;;;;;;;17.45;9.00;;;15.90;99.90;;;;;;5038242;28;20116;-93
2022/05/02 11:22:39;;;;;;;15.43;8.13;;;15.90;99.90;;;;;;5078829;28;20098;-94
2022/05/02 11:25:37;;;;;;;15.65;8.68;;;16.10;99.90;;;;;;5082105;28;20024;-92
2022/05/02 11:28:29;;;;;;;13.63;8.68;;;16.20;99.90;;;;;;5073081;28;20044;-93
2022/05/02 11:31:22;;;;;;;13.80;9.32;;;16.30;99.90;;;;;;5081364;28;20044;-93
2022/05/02 11:34:02;;;;;;;14.88;8.68;;;16.60;99.90;;;;;;5086812;28;20088;-93
2022/05/02 11:36:35;;;;;;;17.33;8.93;;;16.90;99.90;;;;;;5087471;28;20039;-92
2022/05/02 11:39:08;;;;;;;13.75;8.45;;;17.00;99.90;;;;;;5084995;28;20028;-92
2022/05/02 11:41:42;;;;;;;12.27;7.63;;;17.50;99.90;;;;;;5084868;28;20028;-93
2022/05/02 11:44:11;;;;;;;14.48;7.35;;;17.50;99.90;;;;;;5085692;28;20100;-93
2022/05/02 11:47:06;;;;;;;11.23;6.88;;;17.70;99.90;;;;;;5088374;28;20024;-94
2022/05/02 11:49:38;;;;;;;;;;;17.90;99.90;;;;;;5082885;28;20029;-93
2022/05/02 11:52:13;;;;;;;10.32;5.97;;;17.70;99.90;;;;;;5079044;28;19916;-93
2022/05/02 11:54:42;;;;;;;8.20;6.35;;;17.90;99.90;;;;;;5079114;28;20411;-91
2022/05/02 11:57:26;;;;;;;13.77;6.75;;;18.10;99.90;;;;;;5100502;28;20031;-91
2022/05/02 12:00:03;;;;;;;11.07;5.80;;;18.00;99.90;;;;;;5100442;28;20023;-93
2022/05/02 12:02:56;;;;;;;13.10;5.45;;;18.20;99.90;;;;;;5095804;28;20039;-93
2022/05/02 12:05:25;;;;;;;8.80;3.72;;;18.40;99.90;;;;;;5077781;28;20028;-93
2022/05/02 12:07:54;;;;;;;5.05;1.83;;;18.00;99.90;;;;;;5077959;28;20032;-93
2022/05/02 12:10:34;;;;;;;3.00;1.38;;;18.20;99.90;;;;;;5078855;28;20031;-93
2022/05/02 12:13:02;;;;;;;1.90;0.90;;;18.30;99.90;;;;;;5079885;28;20058;-92
2022/05/02 12:15:29;;;;;;;1.98;1.10;;;18.10;99.90;;;;;;5079997;28;20024;-92
2022/05/02 12:18:03;;;;;;;1.85;1.10;;;18.20;99.90;;;;;;5079529;28;20043;-92
2022/05/02 12:20:41;;;;;;;3.38;1.40;;;18.40;99.90;;;;;;5082121;28;20043;-93
2022/05/02 12:23:18;;;;;;;2.42;0.90;;;18.80;99.90;;;;;;5081731;28;20028;-92
2022/05/02 12:25:54;;;;;;;1.85;0.90;;;18.70;99.90;;;;;;5082856;28;20031;-94
2022/05/02 12:28:42;;;;;;;3.47;1.30;;;18.90;99.90;;;;;;5078555;28;20107;-91
2022/05/02 12:31:27;;;;;;;3.10;0.80;;;18.40;99.90;;;;;;4984357;28;20546;-91
2022/05/02 12:34:02;;;;;;;2.33;1.20;;;18.10;99.90;;;;;;5000044;28;20046;-93
2022/05/02 12:36:44;;;;;;;4.13;1.52;;;18.00;99.90;;;;;;5000408;28;20038;-93
2022/05/02 12:39:24;;;;;;;6.15;1.50;;;17.90;99.90;;;;;;4999484;28;20041;-93
2022/05/02 12:42:01;;;;;;;1.50;0.95;;;17.60;99.90;;;;;;4997760;28;20044;-92
2022/05/02 12:45:00;;;;;;;4.07;1.27;;;17.70;99.90;;;;;;5000206;28;20025;-93
2022/05/02 12:47:40;;;;;;;1.55;1.38;;;17.80;99.90;;;;;;5001951;28;20033;-94
2022/05/02 12:50:28;;;;;;;2.95;1.77;;;17.50;99.90;;;;;;5002665;28;20034;-93
2022/05/02 12:53:05;;;;;;;3.17;1.42;;;17.40;99.90;;;;;;5002844;28;20026;-94
2022/05/02 12:55:38;;;;;;;3.63;1.52;;;17.50;99.90;;;;;;4981351;28;20497;-94
2022/05/02 13:00:58;;;;;;;3.55;1.85;;;17.70;99.90;;;;;;5000926;28;20034;-92
2022/05/02 13:03:27;;;;;;;3.58;2.25;;;17.60;99.90;;;;;;4983220;28;20038;-93
2022/05/02 13:06:07;;;;;;;3.85;2.40;;;17.70;99.90;;;;;;4970395;28;20061;-93
2022/05/02 13:08:41;;;;;;;4.03;2.13;;;17.60;99.90;;;;;;5042897;28;20033;-94
2022/05/02 13:11:11;;;;;;;7.13;2.78;;;17.50;99.90;;;;;;5076636;28;20040;-93
2022/05/02 13:13:45;;;;;;;9.68;2.50;;;17.60;99.90;;;;;;5059533;28;20036;-94
2022/05/02 13:16:41;;;;;;;6.40;2.58;;;17.70;99.90;;;;;;5059621;28;20025;-94
2022/05/02 13:19:07;;;;;;;6.93;3.05;;;17.70;99.90;;;;;;5076543;28;20127;-93
2022/05/02 13:21:34;;;;;;;3.67;2.50;;;17.90;99.90;;;;;;5059638;28;20025;-95
2022/05/02 13:24:12;;;;;;;3.75;2.58;;;18.00;99.90;;;;;;5061500;28;20077;-91
2022/05/02 13:27:23;;;;;;;4.40;2.60;;;18.30;99.90;;;;;;5079990;28;20059;-94
2022/05/02 13:30:00;;;;;;;3.97;2.60;;;18.20;99.90;;;;;;5039031;28;20044;-94
2022/05/02 13:32:44;;;;;;;4.68;2.60;;;18.10;99.90;;;;;;5044779;28;20033;-94
2022/05/02 13:35:14;;;;;;;3.97;3.00;;;18.10;99.90;;;;;;5048132;28;20033;-93
2022/05/02 13:37:53;;;;;;;5.72;2.72;;;17.80;99.90;;;;;;5051042;28;20271;-93
2022/05/02 13:40:21;;;;;;;3.17;2.00;;;17.70;99.90;;;;;;5041269;28;20461;-93
2022/05/02 13:43:01;;;;;;;3.88;2.28;;;17.90;99.90;;;;;;5039471;28;20020;-94
2022/05/02 13:45:35;;;;;;;5.13;2.10;;;18.30;99.90;;;;;;5039028;28;20045;-93
2022/05/02 13:48:02;;;;;;;;;;;18.50;99.90;;;;;;5040058;28;20025;-94
2022/05/02 13:50:30;;;;;;;3.88;2.00;;;18.40;99.90;;;;;;5042018;28;19900;-93
2022/05/02 13:53:36;;;;;;;3.22;2.10;;;18.40;99.90;;;;;;5064218;28;20032;-92
2022/05/02 13:56:21;;;;;;;3.28;2.05;;;18.60;99.90;;;;;;5000715;28;20053;-91
2022/05/02 13:59:04;;;;;;;4.05;2.85;;;18.60;99.90;;;;;;4983577;28;20491;-92
2022/05/02 14:01:47;;;;;;;6.95;2.78;;;18.60;99.90;;;;;;4983045;28;20117;-93
2022/05/02 14:04:38;;;;;;;6.03;2.78;;;18.50;99.90;;;;;;4985846;28;20030;-92
2022/05/02 14:07:14;;;;;;;3.78;2.67;;;18.30;99.90;;;;;;5002409;28;20045;-93
2022/05/02 14:09:47;;;;;;;6.78;2.65;;;18.60;99.90;;;;;;5002564;28;20486;-92
2022/05/02 14:12:22;;;;;;;4.72;3.08;;;18.50;99.90;;;;;;5019157;28;20037;-93
2022/05/02 14:14:57;;;;;;;8.75;2.78;;;18.30;99.90;;;;;;5019941;28;20438;-95